createdAt,value
2023-04-15T00:02:17.440Z,99554.91
2023-04-15T00:04:48.667Z,99560.78
2023-04-15T00:07:19.531Z,99557.88
2023-04-15T00:09:51.961Z,99551.53
2023-04-15T00:12:23.728Z,99549.19
2023-04-15T00:14:53.536Z,99549.03
2023-04-15T00:17:23.652Z,99541.50
2023-04-15T00:19:53.336Z,99539.09
2023-04-15T00:22:23.082Z,99536.66
2023-04-15T00:24:52.958Z,99529.56
2023-04-15T00:27:22.582Z,99528.56
2023-04-15T00:29:52.276Z,99530.38
2023-04-15T00:32:22.469Z,99533.66
2023-04-15T00:34:52.637Z,99521.59
2023-04-15T00:37:24.935Z,99526.31
2023-04-15T00:39:54.634Z,99531.00
2023-04-15T00:42:24.533Z,99520.16
2023-04-15T00:44:56.591Z,99529.28
2023-04-15T00:47:26.741Z,99529.00
2023-04-15T00:49:56.323Z,99528.81
2023-04-15T00:52:32.699Z,99536.91
2023-04-15T00:55:06.505Z,99517.47
2023-04-15T00:57:36.460Z,99535.44
2023-04-15T01:00:09.536Z,99529.31
2023-04-15T01:02:39.976Z,99523.13
2023-04-15T01:05:10.123Z,99527.88
2023-04-15T01:07:39.826Z,99526.13
2023-04-15T01:10:10.081Z,99533.34
2023-04-15T01:12:41.100Z,99522.44
2023-04-15T01:15:12.566Z,99539.00
2023-04-15T01:17:42.678Z,99531.22
2023-04-15T01:20:13.827Z,99528.53
2023-04-15T01:22:43.652Z,99533.84
2023-04-15T01:25:18.402Z,99533.72
2023-04-15T01:27:48.172Z,99545.25
2023-04-15T01:30:17.967Z,99540.88
2023-04-15T01:32:47.602Z,99532.88
2023-04-15T01:35:17.213Z,99548.28
2023-04-15T01:37:47.844Z,99556.88
2023-04-15T01:40:18.165Z,99557.00
2023-04-15T01:42:48.707Z,99564.41
2023-04-15T01:45:19.069Z,99566.06
2023-04-15T01:47:53.919Z,99579.34
2023-04-15T01:50:23.560Z,99577.03
2023-04-15T01:52:53.668Z,99588.38
2023-04-15T01:55:26.598Z,99584.03
2023-04-15T01:57:57.579Z,99595.38
2023-04-15T02:00:27.337Z,99586.91
2023-04-15T02:02:59.546Z,99592.22
2023-04-15T02:05:29.354Z,99598.53
2023-04-15T02:08:02.599Z,99599.50
2023-04-15T02:10:32.730Z,99596.38
2023-04-15T02:13:02.726Z,99604.47
2023-04-15T02:15:32.478Z,99611.88
2023-04-15T02:18:02.782Z,99617.00
2023-04-15T02:20:35.903Z,99607.09
2023-04-15T02:23:08.795Z,99599.25
2023-04-15T02:25:53.423Z,99598.34
2023-04-15T02:28:29.964Z,99592.56
2023-04-15T02:31:01.349Z,99584.25
2023-04-15T02:33:34.128Z,99589.91
2023-04-15T02:36:03.985Z,99580.63
2023-04-15T02:38:34.580Z,99581.59
2023-04-15T02:41:04.538Z,99582.94
2023-04-15T02:43:36.794Z,99577.97
2023-04-15T02:46:09.322Z,99587.75
2023-04-15T02:48:45.049Z,99579.59
2023-04-15T02:51:21.219Z,99585.09
2023-04-15T02:53:51.582Z,99577.19
2023-04-15T02:56:21.310Z,99575.56
2023-04-15T02:58:52.327Z,99576.47
2023-04-15T03:01:22.151Z,99570.25
2023-04-15T03:03:51.940Z,99564.94
2023-04-15T03:06:21.666Z,99566.75
2023-04-15T03:08:58.613Z,99562.50
2023-04-15T03:11:35.406Z,99556.38
2023-04-15T03:14:06.019Z,99530.69
2023-04-15T03:16:35.788Z,99507.44
2023-04-15T03:19:05.631Z,99502.63
2023-04-15T03:21:35.245Z,99496.78
2023-04-15T03:24:05.081Z,99493.44
2023-04-15T03:26:34.935Z,99484.09
2023-04-15T03:29:13.354Z,99459.53
2023-04-15T03:31:46.105Z,99448.47
2023-04-15T03:34:18.809Z,99431.44
2023-04-15T03:36:49.114Z,99457.03
2023-04-15T03:39:21.977Z,99433.56
2023-04-15T03:41:51.769Z,99440.81
2023-04-15T03:44:21.524Z,99447.53
2023-04-15T03:46:51.184Z,99454.38
2023-04-15T03:49:21.431Z,99454.56
2023-04-15T03:51:51.138Z,99394.84
2023-04-15T03:54:24.304Z,99388.75
2023-04-15T03:56:54.024Z,99376.44
2023-04-15T03:59:23.842Z,99379.19
2023-04-15T04:01:53.811Z,99360.97
2023-04-15T04:04:25.748Z,99366.00
2023-04-15T04:06:55.409Z,99365.81
2023-04-15T04:09:25.149Z,99391.28
2023-04-15T04:11:54.882Z,99380.91
2023-04-15T04:14:32.993Z,99382.16
2023-04-15T04:17:06.007Z,99385.66
2023-04-15T04:19:38.873Z,99376.13
2023-04-15T04:22:08.766Z,99331.50
2023-04-15T04:24:38.452Z,99337.13
2023-04-15T04:27:08.170Z,99343.69
2023-04-15T04:29:37.789Z,99333.34
2023-04-15T04:32:07.757Z,99345.56
2023-04-15T04:34:37.716Z,99352.81
2023-04-15T04:37:08.854Z,99361.78
2023-04-15T04:39:38.540Z,99367.66
2023-04-15T04:42:08.143Z,99351.13
2023-04-15T04:44:37.784Z,99356.88
2023-04-15T04:47:10.255Z,99361.91
2023-04-15T04:49:40.175Z,99357.13
2023-04-15T04:52:09.788Z,99341.22
2023-04-15T04:54:39.371Z,99339.53
2023-04-15T04:57:09.717Z,99341.19
2023-04-15T04:59:39.613Z,99335.19
2023-04-15T05:02:09.819Z,99347.38
2023-04-15T05:04:39.468Z,99363.75
2023-04-15T05:07:09.788Z,99371.41
2023-04-15T05:09:39.488Z,99367.09
2023-04-15T05:12:10.572Z,99358.47
2023-04-15T05:14:41.377Z,99356.69
2023-04-15T05:17:11.298Z,99358.41
2023-04-15T05:19:40.931Z,99348.94
2023-04-15T05:22:10.819Z,99348.38
2023-04-15T05:24:40.558Z,99348.38
2023-04-15T05:27:14.710Z,99359.03
2023-04-15T05:29:47.483Z,99342.66
2023-04-15T05:32:17.259Z,99337.56
2023-04-15T05:34:47.134Z,99334.94
2023-04-15T05:37:17.258Z,99331.41
2023-04-15T05:39:46.967Z,99330.59
2023-04-15T05:42:17.080Z,99327.22
2023-04-15T05:44:46.822Z,99324.94
2023-04-15T05:47:19.544Z,99325.50
2023-04-15T05:49:49.222Z,99332.78
2023-04-15T05:52:19.001Z,99327.69
2023-04-15T05:54:48.662Z,99322.41
2023-04-15T05:57:18.340Z,99327.81
2023-04-15T05:59:48.273Z,99315.63
2023-04-15T06:02:17.995Z,99325.75
2023-04-15T06:04:50.931Z,99311.59
2023-04-15T06:07:20.672Z,99306.72
2023-04-15T06:09:50.289Z,99319.06
2023-04-15T06:12:20.011Z,99308.69
2023-04-15T06:14:49.678Z,99317.66
2023-04-15T06:17:22.709Z,99314.63
2023-04-15T06:19:57.068Z,99313.34
2023-04-15T06:22:29.905Z,99311.78
2023-04-15T06:24:59.964Z,99308.16
2023-04-15T06:27:30.292Z,99314.69
2023-04-15T06:30:06.328Z,99304.66
2023-04-15T06:32:39.242Z,99315.34
2023-04-15T06:35:09.191Z,99316.03
2023-04-15T06:37:38.842Z,99306.19
2023-04-15T06:40:12.272Z,99311.19
2023-04-15T06:42:42.197Z,99295.25
2023-04-15T06:45:12.298Z,99282.59
2023-04-15T06:47:43.407Z,99284.03
2023-04-15T06:50:13.431Z,99282.19
2023-04-15T06:52:43.443Z,99273.38
2023-04-15T06:55:16.739Z,99276.44
2023-04-15T06:57:46.606Z,99266.94
2023-04-15T07:00:19.256Z,99267.88
2023-04-15T07:02:51.523Z,99260.44
2023-04-15T07:05:21.716Z,99263.22
2023-04-15T07:07:52.780Z,99254.00
2023-04-15T07:10:23.328Z,99264.50
2023-04-15T07:12:59.180Z,99253.81
2023-04-15T07:15:28.854Z,99257.78
2023-04-15T07:17:58.675Z,99255.56
2023-04-15T07:20:28.826Z,99248.78
2023-04-15T07:22:59.078Z,99237.00
2023-04-15T07:25:29.037Z,99235.63
2023-04-15T07:27:58.757Z,99239.06
2023-04-15T07:30:28.395Z,99240.44
2023-04-15T07:33:01.325Z,99243.56
2023-04-15T07:35:31.060Z,99229.34
2023-04-15T07:38:03.864Z,99237.72
2023-04-15T07:40:36.777Z,99234.25
2023-04-15T07:43:06.887Z,99233.34
2023-04-15T07:45:39.454Z,99235.50
2023-04-15T07:48:09.950Z,99248.94
2023-04-15T07:50:39.734Z,99242.50
2023-04-15T07:53:09.923Z,99225.25
2023-04-15T07:55:40.065Z,99230.97
2023-04-15T07:58:09.788Z,99224.59
2023-04-15T08:00:42.295Z,99218.34
2023-04-15T08:03:12.125Z,99219.97
2023-04-15T08:05:41.949Z,99228.06
2023-04-15T08:08:12.013Z,99210.91
2023-04-15T08:10:41.715Z,99219.19
2023-04-15T08:13:11.312Z,99214.84
2023-04-15T08:15:40.989Z,99212.66
2023-04-15T08:18:10.849Z,99224.09
2023-04-15T08:20:43.476Z,99217.97
2023-04-15T08:23:13.134Z,99223.84
2023-04-15T08:25:42.797Z,99209.59
2023-04-15T08:28:12.937Z,99208.53
2023-04-15T08:30:42.920Z,99213.34
2023-04-15T08:33:12.664Z,99213.06
2023-04-15T08:35:46.882Z,99212.69
2023-04-15T08:38:16.542Z,99217.00
2023-04-15T08:40:55.290Z,99215.53
2023-04-15T08:43:28.206Z,99210.78
2023-04-15T08:46:01.558Z,99218.38
2023-04-15T08:48:37.418Z,99218.88
2023-04-15T08:51:07.135Z,99221.06
2023-04-15T08:53:37.040Z,99225.00
2023-04-15T08:56:10.400Z,99228.81
2023-04-15T08:58:41.259Z,99222.38
2023-04-15T09:01:11.001Z,99224.63
2023-04-15T09:03:41.532Z,99231.50
2023-04-15T09:06:11.489Z,99224.78
2023-04-15T09:08:41.136Z,99229.66
2023-04-15T09:11:13.902Z,99227.44
2023-04-15T09:13:46.485Z,99233.47
2023-04-15T09:16:17.364Z,99233.75
2023-04-15T09:18:47.236Z,99235.13
2023-04-15T09:21:20.805Z,99238.78
2023-04-15T09:24:04.488Z,99240.88
2023-04-15T09:26:38.969Z,99244.78
2023-04-15T09:29:16.039Z,99250.25
2023-04-15T09:31:45.782Z,99257.09
2023-04-15T09:34:15.361Z,99250.25
2023-04-15T09:36:51.656Z,99257.22
2023-04-15T09:39:21.579Z,99256.09
2023-04-15T09:42:08.433Z,99251.91
2023-04-15T09:44:38.247Z,99251.06
2023-04-15T09:47:08.486Z,99263.53
2023-04-15T09:49:38.583Z,99267.78
2023-04-15T09:52:08.256Z,99260.34
2023-04-15T09:54:41.297Z,99253.78
2023-04-15T09:57:14.925Z,99246.19
2023-04-15T09:59:45.323Z,99259.53
2023-04-15T10:02:16.317Z,99264.34
2023-04-15T10:04:46.488Z,99258.53
2023-04-15T10:07:16.408Z,99257.44
2023-04-15T10:09:50.723Z,99267.81
2023-04-15T10:12:20.872Z,99271.50
2023-04-15T10:15:01.885Z,99268.47
2023-04-15T10:17:38.574Z,99276.06
2023-04-15T10:20:09.264Z,99278.94
2023-04-15T10:22:39.277Z,99283.38
2023-04-15T10:25:09.369Z,99286.28
2023-04-15T10:27:39.036Z,99291.97
2023-04-15T10:30:09.396Z,99297.44
2023-04-15T10:32:43.024Z,99294.72
2023-04-15T10:35:21.972Z,99303.91
2023-04-15T10:37:51.629Z,99296.53
2023-04-15T10:40:33.038Z,99303.91
2023-04-15T10:43:07.704Z,99304.41
2023-04-15T10:45:41.233Z,99304.03
2023-04-15T10:48:11.082Z,99299.59
2023-04-15T10:50:41.083Z,99302.25
2023-04-15T10:53:23.553Z,99296.34
2023-04-15T10:55:53.505Z,99300.19
2023-04-15T10:58:29.037Z,99302.72
2023-04-15T11:01:01.648Z,99317.16
2023-04-15T11:03:42.427Z,99322.81
2023-04-15T11:06:13.706Z,99323.66
2023-04-15T11:09:00.799Z,99322.19
2023-04-15T11:12:10.054Z,99345.22
2023-04-15T11:14:47.652Z,99336.16
2023-04-15T11:17:17.604Z,99343.72
2023-04-15T11:19:47.309Z,99347.13
2023-04-15T11:22:17.097Z,99348.66
2023-04-15T11:24:56.616Z,99362.59
2023-04-15T11:27:26.559Z,99364.91
2023-04-15T11:29:56.229Z,99370.91
2023-04-15T11:32:31.942Z,99371.44
2023-04-15T11:35:01.690Z,99373.50
2023-04-15T11:37:33.187Z,99369.50
2023-04-15T11:40:05.898Z,99377.78
2023-04-15T11:42:49.065Z,99374.69
2023-04-15T11:45:18.951Z,99364.69
2023-04-15T11:47:55.306Z,99368.28
2023-04-15T11:50:29.033Z,99372.47
2023-04-15T11:53:08.145Z,99377.97
2023-04-15T11:55:54.938Z,99378.06
2023-04-15T11:58:29.394Z,99357.31
2023-04-15T12:01:09.379Z,99371.59
2023-04-15T12:03:48.432Z,99370.47
2023-04-15T12:06:25.270Z,99366.34
2023-04-15T12:08:57.666Z,99370.06
2023-04-15T12:11:35.419Z,99361.78
2023-04-15T12:14:32.079Z,99355.28
2023-04-15T12:17:08.437Z,99368.50
2023-04-15T12:19:50.398Z,99358.72
2023-04-15T12:22:21.496Z,99366.78
2023-04-15T12:24:58.959Z,99364.63
2023-04-15T12:27:30.007Z,99365.63
2023-04-15T12:30:09.633Z,99353.13
2023-04-15T12:32:40.458Z,99348.44
2023-04-15T12:35:11.968Z,99355.69
2023-04-15T12:37:44.585Z,99374.19
2023-04-15T12:40:14.327Z,99376.03
2023-04-15T12:42:43.967Z,99372.50
2023-04-15T12:45:16.347Z,99360.66
2023-04-15T12:47:46.089Z,99354.22
2023-04-15T12:50:15.846Z,99356.31
2023-04-15T12:52:48.200Z,99371.38
2023-04-15T12:55:18.836Z,99380.50
2023-04-15T12:57:48.742Z,99365.25
2023-04-15T13:00:21.075Z,99346.78
2023-04-15T13:02:50.882Z,99344.22
2023-04-15T13:05:20.913Z,99328.84
2023-04-15T13:07:50.541Z,99318.78
2023-04-15T13:10:20.312Z,99312.94
2023-04-15T13:12:58.388Z,99309.47
2023-04-15T13:15:28.057Z,99303.19
2023-04-15T13:17:58.410Z,99304.13
2023-04-15T13:20:29.054Z,99313.63
2023-04-15T13:22:58.739Z,99315.78
2023-04-15T13:25:28.632Z,99314.63
2023-04-15T13:27:59.203Z,99323.38
2023-04-15T13:30:43.406Z,99348.44
2023-04-15T13:33:14.204Z,99350.53
2023-04-15T13:35:44.706Z,99351.19
2023-04-15T13:38:17.023Z,99370.44
2023-04-15T13:40:46.974Z,99367.41
2023-04-15T13:43:17.215Z,99374.38
2023-04-15T13:45:48.415Z,99396.84
2023-04-15T13:48:18.099Z,99400.94
2023-04-15T13:50:47.820Z,99399.44
2023-04-15T13:53:20.683Z,99394.31
2023-04-15T13:56:06.747Z,99381.34
2023-04-15T13:58:36.429Z,99386.19
2023-04-15T14:01:09.302Z,99383.91
2023-04-15T14:03:39.636Z,99394.03
2023-04-15T14:06:09.810Z,99392.78
2023-04-15T14:08:39.423Z,99386.31
2023-04-15T14:11:12.023Z,99392.72
2023-04-15T14:13:41.927Z,99396.84
2023-04-15T14:16:11.619Z,99390.91
2023-04-15T14:18:42.557Z,99395.47
2023-04-15T14:21:15.339Z,99389.94
2023-04-15T14:23:45.321Z,99382.91
2023-04-15T14:26:15.740Z,99392.53
2023-04-15T14:28:46.931Z,99401.09
2023-04-15T14:31:16.758Z,99397.94
2023-04-15T14:33:46.433Z,99407.53
2023-04-15T14:36:16.029Z,99387.81
2023-04-15T14:38:48.733Z,99393.16
2023-04-15T14:41:19.009Z,99402.47
2023-04-15T14:43:48.683Z,99403.94
2023-04-15T14:46:18.610Z,99405.44
2023-04-15T14:48:48.234Z,99400.34
2023-04-15T14:51:18.771Z,99400.56
2023-04-15T14:53:48.641Z,99396.13
2023-04-15T14:56:18.296Z,99394.84
2023-04-15T14:58:47.983Z,99391.81
2023-04-15T15:01:17.886Z,99389.47
2023-04-15T15:03:47.861Z,99400.28
2023-04-15T15:06:17.959Z,99385.22
2023-04-15T15:08:50.937Z,99401.19
2023-04-15T15:11:20.600Z,99394.44
2023-04-15T15:13:52.745Z,99401.22
2023-04-15T15:16:25.471Z,99397.53
2023-04-15T15:18:55.197Z,99396.25
2023-04-15T15:21:25.379Z,99394.03
2023-04-15T15:23:57.641Z,99383.88
2023-04-15T15:26:29.917Z,99393.00
2023-04-15T15:28:59.631Z,99377.84
2023-04-15T15:31:29.493Z,99366.91
2023-04-15T15:33:59.438Z,99359.41
2023-04-15T15:36:29.777Z,99361.56
2023-04-15T15:39:00.971Z,99362.44
2023-04-15T15:41:31.613Z,99365.75
2023-04-15T15:44:06.813Z,99359.38
2023-04-15T15:46:36.572Z,99350.25
2023-04-15T15:49:06.479Z,99342.31
2023-04-15T15:51:39.292Z,99341.50
2023-04-15T15:54:08.975Z,99322.16
2023-04-15T15:56:39.989Z,99330.94
2023-04-15T15:59:10.308Z,99322.63
2023-04-15T16:01:40.009Z,99328.72
2023-04-15T16:04:11.837Z,99327.75
2023-04-15T16:06:42.376Z,99337.84
2023-04-15T16:09:12.258Z,99316.13
2023-04-15T16:11:42.913Z,99311.69
2023-04-15T16:14:12.756Z,99311.69
2023-04-15T16:16:42.648Z,99311.25
2023-04-15T16:19:13.050Z,99312.44
2023-04-15T16:21:42.951Z,99299.22
2023-04-15T16:24:15.424Z,99294.47
2023-04-15T16:26:45.095Z,99299.66
2023-04-15T16:29:14.786Z,99286.19
2023-04-15T16:31:44.435Z,99291.44
2023-04-15T16:34:14.236Z,99285.72
2023-04-15T16:36:44.006Z,99290.59
2023-04-15T16:39:13.698Z,99275.00
2023-04-15T16:41:44.427Z,99276.47
2023-04-15T16:44:14.043Z,99276.28
2023-04-15T16:46:43.720Z,99261.06
2023-04-15T16:49:13.516Z,99266.13
2023-04-15T16:51:43.214Z,99273.06
2023-04-15T16:54:13.385Z,99262.41
2023-04-15T16:56:43.127Z,99257.19
2023-04-15T16:59:15.500Z,99227.94
2023-04-15T17:01:45.931Z,99231.69
2023-04-15T17:04:15.844Z,99224.72
2023-04-15T17:06:51.935Z,99233.16
2023-04-15T17:09:21.587Z,99244.66
2023-04-15T17:11:51.256Z,99246.97
2023-04-15T17:14:24.027Z,99251.16
2023-04-15T17:16:53.612Z,99248.66
2023-04-15T17:19:32.576Z,99257.06
2023-04-15T17:22:02.736Z,99245.50
2023-04-15T17:24:35.148Z,99252.53
2023-04-15T17:27:04.813Z,99251.31
2023-04-15T17:29:35.089Z,99264.69
2023-04-15T17:32:05.248Z,99260.78
2023-04-15T17:34:49.819Z,99269.00
2023-04-15T17:37:20.590Z,99269.72
2023-04-15T17:39:50.251Z,99275.00
2023-04-15T17:42:20.021Z,99289.91
2023-04-15T17:44:49.669Z,99294.91
2023-04-15T17:47:21.957Z,99302.31
2023-04-15T17:49:51.505Z,99313.34
2023-04-15T17:52:21.747Z,99300.47
2023-04-15T17:54:51.810Z,99304.56
2023-04-15T17:57:22.480Z,99295.50
2023-04-15T17:59:52.285Z,99292.38
2023-04-15T18:02:22.238Z,99280.50
2023-04-15T18:04:52.699Z,99290.00
2023-04-15T18:07:22.753Z,99293.09
2023-04-15T18:09:52.554Z,99296.03
2023-04-15T18:12:22.294Z,99288.91
2023-04-15T18:14:52.009Z,99292.94
2023-04-15T18:17:21.977Z,99300.16
2023-04-15T18:19:55.010Z,99306.41
2023-04-15T18:22:27.405Z,99319.69
2023-04-15T18:24:59.285Z,99312.81
2023-04-15T18:27:30.090Z,99321.53
2023-04-15T18:29:59.907Z,99323.88
2023-04-15T18:32:31.937Z,99329.16
2023-04-15T18:35:05.945Z,99344.22
2023-04-15T18:37:35.636Z,99357.22
2023-04-15T18:40:05.368Z,99348.63
2023-04-15T18:42:35.031Z,99349.13
2023-04-15T18:45:05.339Z,99351.72
2023-04-15T18:47:35.341Z,99351.16
2023-04-15T18:50:05.218Z,99349.16
2023-04-15T18:52:35.670Z,99352.16
2023-04-15T18:55:12.417Z,99356.34
2023-04-15T18:57:45.811Z,99369.66
2023-04-15T19:00:20.125Z,99372.03
2023-04-15T19:02:50.012Z,99374.06
2023-04-15T19:05:19.926Z,99366.13
2023-04-15T19:07:49.940Z,99359.69
2023-04-15T19:10:19.684Z,99370.63
2023-04-15T19:12:49.256Z,99369.06
2023-04-15T19:15:19.054Z,99377.66
2023-04-15T19:17:48.942Z,99372.53
2023-04-15T19:20:19.348Z,99376.84
2023-04-15T19:22:49.097Z,99381.19
2023-04-15T19:25:18.853Z,99379.69
2023-04-15T19:27:49.045Z,99394.28
2023-04-15T19:30:19.124Z,99364.75
2023-04-15T19:32:48.907Z,99373.78
2023-04-15T19:35:19.026Z,99376.59
2023-04-15T19:37:49.884Z,99373.53
2023-04-15T19:40:19.584Z,99368.41
2023-04-15T19:42:49.318Z,99368.47
2023-04-15T19:45:19.018Z,99372.38
2023-04-15T19:47:48.691Z,99377.00
2023-04-15T19:50:18.543Z,99373.66
2023-04-15T19:52:48.551Z,99374.34
2023-04-15T19:55:18.467Z,99383.75
2023-04-15T19:57:48.159Z,99383.94
2023-04-15T20:00:23.320Z,99378.59
2023-04-15T20:02:53.158Z,99388.22
2023-04-15T20:05:22.989Z,99392.72
2023-04-15T20:07:56.354Z,99382.63
2023-04-15T20:10:27.226Z,99379.47
2023-04-15T20:12:57.194Z,99383.22
2023-04-15T20:15:26.870Z,99398.00
2023-04-15T20:17:56.592Z,99402.50
2023-04-15T20:20:26.316Z,99394.72
2023-04-15T20:22:56.342Z,99401.94
2023-04-15T20:25:26.059Z,99380.19
2023-04-15T20:27:55.736Z,99374.31
2023-04-15T20:30:25.365Z,99376.25
2023-04-15T20:32:55.038Z,99371.72
2023-04-15T20:35:24.926Z,99390.16
2023-04-15T20:37:54.776Z,99386.97
2023-04-15T20:40:27.395Z,99368.34
2023-04-15T20:42:57.485Z,99375.03
2023-04-15T20:45:27.275Z,99389.75
2023-04-15T20:47:57.653Z,99384.31
2023-04-15T20:50:27.398Z,99395.84
2023-04-15T20:52:57.699Z,99392.88
2023-04-15T20:55:28.956Z,99394.06
2023-04-15T20:58:02.963Z,99399.56
2023-04-15T21:00:34.521Z,99396.81
2023-04-15T21:03:07.442Z,99399.69
2023-04-15T21:05:40.140Z,99405.59
2023-04-15T21:08:11.259Z,99398.38
2023-04-15T21:10:44.011Z,99404.47
2023-04-15T21:13:14.688Z,99410.69
2023-04-15T21:15:45.260Z,99399.50
2023-04-15T21:18:17.941Z,99404.63
2023-04-15T21:20:48.037Z,99412.88
2023-04-15T21:23:17.617Z,99400.81
2023-04-15T21:25:47.371Z,99414.16
2023-04-15T21:28:17.065Z,99418.19
2023-04-15T21:30:47.432Z,99392.59
2023-04-15T21:33:19.897Z,99404.09
2023-04-15T21:35:49.621Z,99397.66
2023-04-15T21:38:20.800Z,99403.78
2023-04-15T21:40:52.771Z,99387.00
2023-04-15T21:43:27.478Z,99403.16
2023-04-15T21:46:23.469Z,99391.09
2023-04-15T21:48:47.795Z,99402.97
2023-04-15T21:51:17.792Z,99400.28
2023-04-15T21:53:50.302Z,99400.19
2023-04-15T21:56:21.754Z,99387.78
2023-04-15T21:58:51.495Z,99391.00
2023-04-15T22:01:21.189Z,99393.81
2023-04-15T22:03:51.776Z,99386.50
2023-04-15T22:06:28.611Z,99391.09
2023-04-15T22:08:58.261Z,99399.97
2023-04-15T22:11:28.825Z,99394.91
2023-04-15T22:13:59.715Z,99403.84
2023-04-15T22:16:30.142Z,99406.34
2023-04-15T22:19:02.651Z,99401.19
2023-04-15T22:21:33.348Z,99389.47
2023-04-15T22:24:32.973Z,99385.97
2023-04-15T22:26:53.001Z,99391.50
2023-04-15T22:29:22.720Z,99403.59
2023-04-15T22:31:53.667Z,99403.47
2023-04-15T22:34:23.560Z,99398.84
2023-04-15T22:36:57.148Z,99403.34
2023-04-15T22:39:29.464Z,99397.88
2023-04-15T22:42:00.252Z,99399.09
2023-04-15T22:44:29.882Z,99410.50
2023-04-15T22:46:59.533Z,99407.94
2023-04-15T22:49:29.307Z,99402.38
2023-04-15T22:52:02.321Z,99393.94
2023-04-15T22:54:32.988Z,99412.28
2023-04-15T22:57:02.683Z,99409.25
2023-04-15T22:59:32.485Z,99407.25
2023-04-15T23:02:02.412Z,99421.41
2023-04-15T23:04:32.658Z,99423.47
2023-04-15T23:07:02.444Z,99408.72
2023-04-15T23:09:32.754Z,99414.09
2023-04-15T23:12:02.938Z,99419.13
2023-04-15T23:14:34.782Z,99422.84
2023-04-15T23:17:04.377Z,99405.94
2023-04-15T23:19:35.255Z,99418.72
2023-04-15T23:22:05.439Z,99422.72
2023-04-15T23:24:35.127Z,99428.94
2023-04-15T23:27:07.543Z,99425.91
2023-04-15T23:29:37.933Z,99428.16
2023-04-15T23:32:08.649Z,99422.47
2023-04-15T23:34:38.311Z,99417.31
2023-04-15T23:37:08.017Z,99406.28
2023-04-15T23:39:37.839Z,99404.47
2023-04-15T23:42:13.257Z,99395.78
2023-04-15T23:44:42.858Z,99402.47
2023-04-15T23:47:15.650Z,99403.16
2023-04-15T23:49:45.284Z,99405.66
2023-04-15T23:52:14.978Z,99402.56
2023-04-15T23:54:51.373Z,99393.56
2023-04-15T23:57:21.075Z,99390.50
2023-04-15T23:59:50.891Z,99402.09
